Aérodrome :
LOGIN :

S'inscrire | Disclaimer

   EN    FR    IT 

 










Légende :    VFR   VFR Marginal   IFR   IFR Intensif   IFR Très Intensif
Visi : 
Plafond : 
>= 8 km
>= 3000ft
5 à 8 km
1000 à 3000 ft
1500m à 5 km
500 à 1000 ft
800 à 1500m
200 à 500 ft
< 800m
< 200 ft
Symboles :   Orages  Brouillard  Fortes neiges  Fortes précipitations  Vent > 20 kt
SIGMETs :   Divers  Orages  Givrage  Turbulence  Onde Orograph.  Cendres Volcan.







- Altitude de l'aérodrome : 885 ft
- Code IATA : BAS
- Voir les cartes d'approche


LFSB - Bale-Mulhouse

DERNIER METAR :
  • 092300Z 26013KT 9999 OVC051 07/04 Q1019 TEMPO 27015G25KT

METARs EXPIRÉS :
  • 092230Z 27012KT 9999 FEW023 SCT041 BKN048 07/05 Q1019 TEMPO 27015G25KT
  • 092200Z 30007KT 260V330 9999 FEW016 SCT030 BKN035 07/05 Q1018 TEMPO 27015G25KT
  • 092130Z 26013KT 9999 FEW016 BKN035 BKN041 08/05 Q1017 TEMPO 27015G25KT
  • 092100Z 26007KT 9999 FEW035 BKN036 BKN041 07/06 Q1017 NOSIG
  • 092030Z 26005KT 230V290 9999 FEW016 BKN036 BKN050 07/05 Q1016 NOSIG

TAF TAF LFSB
Valide du 10 à 00h jusqu'au 11 à 00h UTC


092300Z 1000/1024 26010KT 9999 BKN040
TEMPO 1000/1012 27015G25KT -SHRA FEW025TCU
Météo : +33 3 89 90 31 11
Pas de NOTAMs connus pour ce terrain.



MET'MAP, la Météo Aéronautique d'un coup d'oeil ! - Copyright ORBIFLY Décembre 2007 - Disclaimer

ORBIFLY MET'MAP TEAM :

Programmation & Développement : Alexandra Zaïnal
Conception & Développement : Baudouin d'Aumeries
Co-Programmation & Développement : Marc-Olivier Méhu
Soutien technique & logistique : Manuel Goepfert

Contact : metmap@orbifly.com




SOURCES & CREDITS :

   NOAA